Cathma — PJTL — position and weather

sailwx.info

Track history (hours):
 
Tides and Currents Weather Stations Pressure Air Temp Water Temp Dewpoint Dewpoint Depression Visibility Wind Speed Wind Dir Waves Ship Positions

Cathma

Last reported at 2016-Sep-15 03:05 UTC. Time now 2016-Sep-25 05:32 UTC.
Position N 56°52' E 017°23'.
Warning: this ship's position is 10 days out of date.

Length 112 m; draft 6.3 m.

Type: Cargo ship. MMSI: 306832000.

Date/timePositionNaut miles runAvg speedWind from/ knotsBaromVisibWave heightAir tempDewpointWater temp
2016-Sep-15 03:05N 56°52' E 017°23'83 8.7
2016-Sep-14 17:33N 55°46' E 015°50'9 9.2
2016-Sep-14 16:33N 55°42' E 015°36'28 9.2
2016-Sep-14 13:33N 55°28' E 014°54'9 9.3
2016-Sep-14 12:33N 55°24' E 014°39'18 8.9
2016-Sep-14 10:33N 55°11' E 014°17'9 8.9
2016-Sep-14 09:33N 55°10' E 014°01'9 9.2
2016-Sep-14 08:33N 55°11' E 013°45'1010.3
2016-Sep-14 07:33N 55°13' E 013°27'1010.4
2016-Sep-14 06:33N 55°14' E 013°09'23 7.6
2016-Sep-14 03:33N 55°30' E 012°42'43 8.6
2016-Sep-13 22:33N 56°12' E 012°19'20 9.8
2016-Sep-13 20:33N 56°28' E 011°59'2110.6
2016-Sep-13 18:33N 56°48' E 011°49'1110.7
2016-Sep-13 17:33N 56°58' E 011°42'1010.2
2016-Sep-13 16:33N 57°08' E 011°36'47 9.3
2016-Sep-13 11:33N 57°42' E 010°37'4 1.1
2016-Sep-13 07:30N 57°46' E 010°35'1011.0
2016-Sep-13 06:33N 57°46' E 010°16'414 9.9
2016-Sep-11 12:33N 58°41' W 002°45'9 9.4
2016-Sep-11 11:33N 58°42' W 003°02'8 7.8
2016-Sep-11 10:33N 58°42' W 003°18'20 9.9
2016-Sep-11 08:33N 58°42' W 003°56'1010.3
2016-Sep-11 07:33N 58°41' W 004°15'191 8.7
2016-Sep-10 09:32N 55°49' W 006°47'10 9.9
2016-Sep-10 08:33N 55°40' W 006°39'1010.4
2016-Sep-10 07:33N 55°33' W 006°26'10 9.7
2016-Sep-10 06:33N 55°26' W 006°13'9 8.8
2016-Sep-10 05:33N 55°22' W 005°59'1211.2
2016-Sep-10 04:31N 55°12' W 005°49'2110.4
2016-Sep-10 02:30N 54°54' W 005°31'9 9.9
2016-Sep-10 01:33N 54°45' W 005°24'10 9.7
2016-Sep-10 00:33N 54°36' W 005°19'10 9.8
2016-Sep-09 23:33N 54°27' W 005°14'9 9.2
2016-Sep-09 22:33N 54°18' W 005°16'1010.3
2016-Sep-09 21:33N 54°09' W 005°25'1110.0
2016-Sep-09 20:27N 53°59' W 005°32'  
Track history (hours):
 
Tides and Currents Weather Stations Pressure Air Temp Water Temp Dewpoint Dewpoint Depression Visibility Wind Speed Wind Dir Waves Ship Positions

Cathma

Last reported at 2016-Sep-15 03:05 UTC. Time now 2016-Sep-25 05:32 UTC.
Position N 56°52' E 017°23'.
Warning: this ship's position is 10 days out of date.

Length 112 m; draft 6.3 m.

Type: Cargo ship. MMSI: 306832000.

Date/timePositionNaut miles runAvg speedWind from/ knotsBaromVisibWave heightAir tempDewpointWater temp
2016-Sep-15 03:05N 56°52' E 017°23'83 8.7
2016-Sep-14 17:33N 55°46' E 015°50'9 9.2
2016-Sep-14 16:33N 55°42' E 015°36'28 9.2
2016-Sep-14 13:33N 55°28' E 014°54'9 9.3
2016-Sep-14 12:33N 55°24' E 014°39'18 8.9
2016-Sep-14 10:33N 55°11' E 014°17'9 8.9
2016-Sep-14 09:33N 55°10' E 014°01'9 9.2
2016-Sep-14 08:33N 55°11' E 013°45'1010.3
2016-Sep-14 07:33N 55°13' E 013°27'1010.4
2016-Sep-14 06:33N 55°14' E 013°09'23 7.6
2016-Sep-14 03:33N 55°30' E 012°42'43 8.6
2016-Sep-13 22:33N 56°12' E 012°19'20 9.8
2016-Sep-13 20:33N 56°28' E 011°59'2110.6
2016-Sep-13 18:33N 56°48' E 011°49'1110.7
2016-Sep-13 17:33N 56°58' E 011°42'1010.2
2016-Sep-13 16:33N 57°08' E 011°36'47 9.3
2016-Sep-13 11:33N 57°42' E 010°37'4 1.1
2016-Sep-13 07:30N 57°46' E 010°35'1011.0
2016-Sep-13 06:33N 57°46' E 010°16'414 9.9
2016-Sep-11 12:33N 58°41' W 002°45'9 9.4
2016-Sep-11 11:33N 58°42' W 003°02'8 7.8
2016-Sep-11 10:33N 58°42' W 003°18'20 9.9
2016-Sep-11 08:33N 58°42' W 003°56'1010.3
2016-Sep-11 07:33N 58°41' W 004°15'191 8.7
2016-Sep-10 09:32N 55°49' W 006°47'10 9.9
2016-Sep-10 08:33N 55°40' W 006°39'1010.4
2016-Sep-10 07:33N 55°33' W 006°26'10 9.7
2016-Sep-10 06:33N 55°26' W 006°13'9 8.8
2016-Sep-10 05:33N 55°22' W 005°59'1211.2
2016-Sep-10 04:31N 55°12' W 005°49'2110.4
2016-Sep-10 02:30N 54°54' W 005°31'9 9.9
2016-Sep-10 01:33N 54°45' W 005°24'10 9.7
2016-Sep-10 00:33N 54°36' W 005°19'10 9.8
2016-Sep-09 23:33N 54°27' W 005°14'9 9.2
2016-Sep-09 22:33N 54°18' W 005°16'1010.3
2016-Sep-09 21:33N 54°09' W 005°25'1110.0
2016-Sep-09 20:27N 53°59' W 005°32'  

Dump ship's entire track history